Evangeline, LA (70537)

2:38 PM CDT on April 26, 2017 (GMT -0500)
Jennings | | Change Station
Active Advisory: Wind Advisory

Elev 23 ft 30.24 °N, 92.67 °W | Updated 3 minutes ago

Overcast
Overcast
80 °F
Feels Like 84 °F
N
15
Wind Variable Wind from South
Gusts 23 mph

Today
High -- | Low -- °F
--% Chance of Precip.
Yesterday
High -- | Low -- °F
Precip. -- in
Pressure 29.63 in
Visibility 10.0 miles
Clouds Mostly Cloudy 2400 ft
Mostly Cloudy 3000 ft
Overcast 6000 ft
Heat Index 84 °F
Dew Point 70 °F
Humidity 71%
Rainfall 0.00 in
Snow Depth Not available.
6:31 AM 7:45 PM
New Moon, 0% visible
METAR K3R7 261935Z AUTO 17013G20KT 10SM BKN024 BKN030 OVC060 27/21 A2963 RMK AO2 T02680212
Pressure 29.63 in
Visibility 10.0 miles
Clouds Mostly Cloudy 2400 ft
Mostly Cloudy 3000 ft
Overcast 6000 ft
Heat Index 84 °F
Dew Point 70 °F
Humidity 71%
Rainfall 0.00 in
Snow Depth Not available.
6:31 AM 7:45 PM
New Moon, 0% visible
METAR K3R7 261935Z AUTO 17013G20KT 10SM BKN024 BKN030 OVC060 27/21 A2963 RMK AO2 T02680212

Get Your Daily Forecast Email!

Thanks for signing up!

Be on the lookout for a verification email in your inbox.

You'll start receiving severe weather alerts in your inbox..

×

10-Day Weather Forecast

Almanac

Astronomy

Apr. 26, 2017 Rise Set
Actual Time
Civil Twilight
Nautical Twilight
Astronomical Twilight
Moon
Length of Visible Light
Length of Day
Tomorrow will be .
, % of the Moon is Illuminated

Today's Extremes

State Highs State Lows

Community

WunderPhotos

WunderBlog® & News

Nearby

Air Quality

  Air Quality AQ Index Pollutant
Not available.

Snow Depth

Station Depth Elevation

Earthquake Activity

City Distance Mag. Time & Date
Minimum magnitude displayed is 2.5.

Coastal Water Temperatures

Place Temperature

Stations

Nearby Weather Stations

Station Location Temp. Windchill Dew Point Humidity Wind Precip. Elev Updated Type
                   

Watches & Warnings

Wind Advisory
Issued: 10:30 AM CDT Apr. 26, 2017 – National Weather Service

... Wind Advisory in effect until 7 PM CDT this evening...

The National Weather Service in Lake Charles has issued a Wind
Advisory, which is in effect until 7 PM CDT this evening.

* Timing... through early evening.

* Winds... south at 15 to 25 mph with gusts up to 35 mph.

* Impacts... difficult driving conditions for high profile
vehicles, especially on east to west and elevated roadways.
Loose lawn objects along with trash cans will be blown around.

Precautionary/preparedness actions...

A Wind Advisory means that winds of 20 mph are expected. Winds
this strong can make driving difficult... especially for high
profile vehicles. Use extra caution.



13